createdAt,value
2023-11-12T00:00:12.859Z,930.05
2023-11-12T00:01:12.901Z,930.08
2023-11-12T00:02:12.941Z,930.04
2023-11-12T00:03:12.952Z,930.06
2023-11-12T00:04:12.900Z,930.08
2023-11-12T00:05:12.951Z,930.04
2023-11-12T00:06:12.948Z,930.07
2023-11-12T00:07:12.875Z,930.07
2023-11-12T00:08:12.873Z,930.06
2023-11-12T00:09:12.825Z,930.11
2023-11-12T00:10:12.841Z,930.06
2023-11-12T00:11:12.912Z,930.09
2023-11-12T00:12:12.829Z,930.12
2023-11-12T00:13:12.836Z,930.12
2023-11-12T00:14:12.853Z,930.16
2023-11-12T00:15:12.842Z,930.21
2023-11-12T00:16:12.957Z,930.17
2023-11-12T00:17:12.876Z,930.21
2023-11-12T00:18:12.872Z,930.20
2023-11-12T00:19:12.802Z,930.19
2023-11-12T00:20:12.872Z,930.21
2023-11-12T00:21:13.169Z,930.20
2023-11-12T00:22:12.800Z,930.22
2023-11-12T00:23:12.850Z,930.20
2023-11-12T00:24:12.925Z,930.21
2023-11-12T00:25:12.803Z,930.20
2023-11-12T00:26:12.812Z,930.20
2023-11-12T00:27:12.795Z,930.21
2023-11-12T00:28:12.799Z,930.17
2023-11-12T00:29:12.893Z,930.16
2023-11-12T00:30:12.816Z,930.16
2023-11-12T00:31:12.809Z,930.15
2023-11-12T00:32:12.853Z,930.10
2023-11-12T00:33:12.838Z,930.16
2023-11-12T00:34:12.783Z,930.15
2023-11-12T00:35:12.817Z,930.19
2023-11-12T00:36:12.881Z,930.20
2023-11-12T00:37:12.779Z,930.19
2023-11-12T00:38:12.795Z,930.22
2023-11-12T00:39:12.780Z,930.21
2023-11-12T00:40:12.754Z,930.22
2023-11-12T00:41:12.806Z,930.27
2023-11-12T00:42:12.760Z,930.27
2023-11-12T00:43:12.750Z,930.31
2023-11-12T00:44:12.796Z,930.28
2023-11-12T00:45:12.760Z,930.30
2023-11-12T00:46:12.905Z,930.31
2023-11-12T00:47:12.785Z,930.31
2023-11-12T00:48:12.838Z,930.34
2023-11-12T00:49:12.752Z,930.32
2023-11-12T00:50:12.779Z,930.36
2023-11-12T00:51:12.754Z,930.38
2023-11-12T00:52:12.741Z,930.42
2023-11-12T00:53:12.781Z,930.40
2023-11-12T00:54:12.760Z,930.34
2023-11-12T00:55:12.744Z,930.39
2023-11-12T00:56:12.885Z,930.39
2023-11-12T00:57:12.749Z,930.36
2023-11-12T00:58:12.720Z,930.37
2023-11-12T00:59:12.773Z,930.38
2023-11-12T01:00:12.737Z,930.38
2023-11-12T01:01:12.995Z,930.38
2023-11-12T01:02:12.735Z,930.36
2023-11-12T01:03:12.789Z,930.37
2023-11-12T01:04:12.712Z,930.37
2023-11-12T01:05:12.801Z,930.37
2023-11-12T01:06:12.697Z,930.37
2023-11-12T01:07:13.057Z,930.37
2023-11-12T01:08:12.742Z,930.36
2023-11-12T01:09:12.710Z,930.38
2023-11-12T01:10:12.683Z,930.39
2023-11-12T01:11:12.705Z,930.39
2023-11-12T01:12:12.694Z,930.37
2023-11-12T01:13:12.701Z,930.40
2023-11-12T01:14:12.693Z,930.43
2023-11-12T01:15:12.713Z,930.41
2023-11-12T01:16:12.856Z,930.40
2023-11-12T01:17:12.685Z,930.42
2023-11-12T01:18:12.716Z,930.38
2023-11-12T01:19:12.672Z,930.42
2023-11-12T01:20:12.682Z,930.44
2023-11-12T01:21:12.679Z,930.43
2023-11-12T01:22:12.670Z,930.42
2023-11-12T01:23:12.664Z,930.45
2023-11-12T01:24:12.710Z,930.41
2023-11-12T01:25:12.658Z,930.45
2023-11-12T01:26:12.652Z,930.43
2023-11-12T01:27:12.732Z,930.42
2023-11-12T01:28:12.656Z,930.41
2023-11-12T01:29:12.653Z,930.43
2023-11-12T01:30:12.669Z,930.39
2023-11-12T01:31:12.656Z,930.40
2023-11-12T01:32:12.688Z,930.39
2023-11-12T01:33:12.749Z,930.36
2023-11-12T01:34:12.641Z,930.37
2023-11-12T01:35:12.637Z,930.37
2023-11-12T01:36:12.668Z,930.36
2023-11-12T01:37:12.633Z,930.37
2023-11-12T01:38:12.629Z,930.40
2023-11-12T01:39:12.643Z,930.40
2023-11-12T01:40:12.620Z,930.41
2023-11-12T01:41:12.634Z,930.41
2023-11-12T01:42:12.699Z,930.44
2023-11-12T01:43:12.605Z,930.48
2023-11-12T01:44:12.701Z,930.46
2023-11-12T01:45:12.615Z,930.43
2023-11-12T01:46:12.647Z,930.42
2023-11-12T01:47:12.602Z,930.43
2023-11-12T01:48:12.698Z,930.38
2023-11-12T01:49:12.599Z,930.40
2023-11-12T01:50:12.608Z,930.39
2023-11-12T01:51:12.642Z,930.40
2023-11-12T01:52:12.686Z,930.43
2023-11-12T01:53:12.579Z,930.39
2023-11-12T01:54:12.610Z,930.42
2023-11-12T01:55:12.572Z,930.39
2023-11-12T01:56:12.582Z,930.41
2023-11-12T01:57:12.611Z,930.40
2023-11-12T01:58:12.585Z,930.38
2023-11-12T01:59:12.567Z,930.40
2023-11-12T02:00:13.015Z,930.36
2023-11-12T02:01:12.551Z,930.36
2023-11-12T02:02:12.561Z,930.35
2023-11-12T02:03:12.651Z,930.36
2023-11-12T02:04:12.653Z,930.37
2023-11-12T02:05:12.554Z,930.37
2023-11-12T02:06:12.575Z,930.36
2023-11-12T02:07:12.549Z,930.38
2023-11-12T02:08:12.539Z,930.39
2023-11-12T02:09:12.539Z,930.35
2023-11-12T02:10:12.637Z,930.36
2023-11-12T02:11:12.539Z,930.34
2023-11-12T02:12:12.566Z,930.33
2023-11-12T02:13:12.532Z,930.28
2023-11-12T02:14:12.523Z,930.30
2023-11-12T02:15:12.634Z,930.31
2023-11-12T02:16:12.598Z,930.26
2023-11-12T02:17:12.503Z,930.28
2023-11-12T02:18:12.566Z,930.25
2023-11-12T02:19:12.502Z,930.24
2023-11-12T02:20:12.656Z,930.25
2023-11-12T02:21:12.516Z,930.25
2023-11-12T02:22:12.492Z,930.23
2023-11-12T02:23:12.505Z,930.25
2023-11-12T02:24:12.535Z,930.22
2023-11-12T02:25:12.508Z,930.20
2023-11-12T02:26:12.486Z,930.22
2023-11-12T02:27:12.507Z,930.17
2023-11-12T02:28:12.488Z,930.17
2023-11-12T02:29:12.475Z,930.16
2023-11-12T02:30:12.472Z,930.15
2023-11-12T02:31:12.492Z,930.16
2023-11-12T02:32:12.588Z,930.17
2023-11-12T02:33:12.554Z,930.18
2023-11-12T02:34:12.468Z,930.16
2023-11-12T02:35:12.474Z,930.14
2023-11-12T02:36:12.506Z,930.13
2023-11-12T02:37:12.449Z,930.14
2023-11-12T02:38:12.464Z,930.10
2023-11-12T02:39:12.500Z,930.11
2023-11-12T02:40:12.448Z,930.13
2023-11-12T02:41:12.446Z,930.08
2023-11-12T02:42:12.454Z,930.14
2023-11-12T02:43:12.537Z,930.10
2023-11-12T02:44:12.433Z,930.10
2023-11-12T02:45:12.519Z,930.05
2023-11-12T02:46:12.451Z,930.06
2023-11-12T02:47:12.432Z,930.07
2023-11-12T02:48:12.571Z,930.04
2023-11-12T02:49:12.422Z,930.05
2023-11-12T02:50:12.411Z,930.02
2023-11-12T02:51:12.449Z,930.01
2023-11-12T02:52:12.419Z,930.00
2023-11-12T02:53:12.413Z,929.99
2023-11-12T02:54:12.416Z,929.98
2023-11-12T02:55:12.401Z,929.99
2023-11-12T02:56:12.476Z,929.97
2023-11-12T02:57:12.442Z,929.95
2023-11-12T02:58:12.386Z,929.95
2023-11-12T02:59:12.392Z,929.92
2023-11-12T03:00:12.425Z,929.92
2023-11-12T03:01:12.413Z,929.91
2023-11-12T03:02:12.371Z,929.87
2023-11-12T03:03:12.440Z,929.86
2023-11-12T03:04:12.546Z,929.87
2023-11-12T03:05:12.368Z,929.82
2023-11-12T03:06:12.454Z,929.83
2023-11-12T03:07:12.354Z,929.83
2023-11-12T03:08:12.359Z,929.80
2023-11-12T03:09:12.401Z,929.81
2023-11-12T03:10:12.361Z,929.82
2023-11-12T03:11:12.341Z,929.82
2023-11-12T03:12:12.355Z,929.75
2023-11-12T03:13:12.331Z,929.73
2023-11-12T03:14:12.328Z,929.75
2023-11-12T03:15:12.382Z,929.74
2023-11-12T03:16:12.367Z,929.73
2023-11-12T03:17:12.322Z,929.70
2023-11-12T03:18:12.436Z,929.73
2023-11-12T03:19:12.413Z,929.70
2023-11-12T03:20:12.309Z,929.66
2023-11-12T03:21:12.346Z,929.70
2023-11-12T03:22:12.317Z,929.69
2023-11-12T03:23:12.299Z,929.71
2023-11-12T03:24:12.321Z,929.70
2023-11-12T03:25:12.310Z,929.66
2023-11-12T03:26:12.292Z,929.67
2023-11-12T03:27:12.291Z,929.67
2023-11-12T03:28:12.311Z,929.67
2023-11-12T03:29:12.280Z,929.63
2023-11-12T03:30:12.359Z,929.59
2023-11-12T03:31:12.284Z,929.61
2023-11-12T03:32:12.269Z,929.59
2023-11-12T03:33:12.298Z,929.59
2023-11-12T03:34:12.264Z,929.59
2023-11-12T03:35:12.259Z,929.55
2023-11-12T03:36:12.281Z,929.59
2023-11-12T03:37:12.250Z,929.57
2023-11-12T03:38:12.250Z,929.54
2023-11-12T03:39:12.269Z,929.54
2023-11-12T03:40:12.245Z,929.52
2023-11-12T03:41:12.237Z,929.53
2023-11-12T03:42:12.250Z,929.53
2023-11-12T03:43:12.239Z,929.51
2023-11-12T03:44:12.361Z,929.52
2023-11-12T03:45:12.253Z,929.54
2023-11-12T03:46:12.225Z,929.51
2023-11-12T03:47:12.221Z,929.51
2023-11-12T03:48:12.361Z,929.48
2023-11-12T03:49:12.223Z,929.47
2023-11-12T03:50:12.205Z,929.47
2023-11-12T03:51:12.248Z,929.45
2023-11-12T03:52:12.210Z,929.52
2023-11-12T03:53:12.197Z,929.50
2023-11-12T03:54:12.223Z,929.48
2023-11-12T03:55:12.199Z,929.45
2023-11-12T03:56:12.185Z,929.45
2023-11-12T03:57:12.196Z,929.44
2023-11-12T03:58:12.177Z,929.42
2023-11-12T03:59:12.182Z,929.43
2023-11-12T04:00:12.246Z,929.39
2023-11-12T04:01:12.223Z,929.40
2023-11-12T04:02:12.216Z,929.38
2023-11-12T04:03:12.460Z,929.35
2023-11-12T04:04:12.314Z,929.35
2023-11-12T04:05:12.311Z,929.34
2023-11-12T04:06:12.213Z,929.30
2023-11-12T04:07:12.147Z,929.32
2023-11-12T04:08:12.141Z,929.29
2023-11-12T04:09:12.290Z,929.30
2023-11-12T04:10:12.134Z,929.30
2023-11-12T04:11:12.136Z,929.28
2023-11-12T04:12:12.160Z,929.28
2023-11-12T04:13:12.122Z,929.29
2023-11-12T04:14:12.126Z,929.33
2023-11-12T04:15:12.171Z,929.30
2023-11-12T04:16:12.175Z,929.30
2023-11-12T04:17:12.108Z,929.29
2023-11-12T04:18:12.154Z,929.30
2023-11-12T04:19:12.102Z,929.27
2023-11-12T04:20:12.092Z,929.25
2023-11-12T04:21:12.119Z,929.23
2023-11-12T04:22:12.089Z,929.19
2023-11-12T04:23:12.086Z,929.20
2023-11-12T04:24:12.198Z,929.11
2023-11-12T04:25:12.090Z,929.13
2023-11-12T04:26:12.073Z,929.11
2023-11-12T04:27:12.102Z,929.07
2023-11-12T04:28:12.066Z,929.07
2023-11-12T04:29:12.095Z,929.07
2023-11-12T04:30:12.069Z,929.04
2023-11-12T04:31:12.073Z,929.00
2023-11-12T04:32:12.052Z,929.04
2023-11-12T04:33:12.058Z,929.04
2023-11-12T04:34:12.087Z,929.01
2023-11-12T04:35:12.065Z,928.98
2023-11-12T04:36:12.084Z,928.94
2023-11-12T04:37:12.033Z,928.96
2023-11-12T04:38:12.035Z,928.93
2023-11-12T04:39:12.058Z,928.90
2023-11-12T04:40:12.026Z,928.91
2023-11-12T04:41:12.024Z,928.89
2023-11-12T04:42:12.040Z,928.86
2023-11-12T04:43:12.014Z,928.88
2023-11-12T04:44:12.108Z,928.83
2023-11-12T04:45:12.058Z,928.81
2023-11-12T04:46:12.031Z,928.85
2023-11-12T04:47:12.002Z,928.88
2023-11-12T04:48:12.052Z,928.85
2023-11-12T04:49:11.991Z,928.90
2023-11-12T04:50:11.993Z,928.91
2023-11-12T04:51:12.058Z,928.98
2023-11-12T04:52:11.983Z,928.98
2023-11-12T04:53:11.981Z,929.07
2023-11-12T04:54:12.391Z,929.06
2023-11-12T04:55:11.971Z,929.13
2023-11-12T04:56:11.970Z,929.17
2023-11-12T04:57:11.983Z,929.16
2023-11-12T04:58:11.961Z,929.23
2023-11-12T04:59:12.214Z,929.21
2023-11-12T05:00:13.952Z,929.25
2023-11-12T05:01:11.947Z,929.26
2023-11-12T05:02:11.997Z,929.29
2023-11-12T05:03:11.965Z,929.26
2023-11-12T05:04:11.992Z,929.26
2023-11-12T05:05:11.928Z,929.27
2023-11-12T05:06:11.954Z,929.28
2023-11-12T05:07:11.926Z,929.32
2023-11-12T05:08:11.921Z,929.30
2023-11-12T05:09:12.043Z,929.33
2023-11-12T05:10:11.915Z,929.38
2023-11-12T05:11:11.925Z,929.38
2023-11-12T05:12:11.915Z,929.43
2023-11-12T05:13:11.914Z,929.48
2023-11-12T05:14:11.911Z,929.48
2023-11-12T05:15:11.952Z,929.53
2023-11-12T05:16:11.912Z,929.55
2023-11-12T05:17:11.885Z,929.63
2023-11-12T05:18:12.028Z,929.60
2023-11-12T05:19:11.982Z,929.60
2023-11-12T05:20:11.868Z,929.55
2023-11-12T05:21:11.877Z,929.52
2023-11-12T05:22:11.863Z,929.51
2023-11-12T05:23:11.860Z,929.55
2023-11-12T05:24:12.116Z,929.59
2023-11-12T05:25:11.845Z,929.61
2023-11-12T05:26:11.851Z,929.67
2023-11-12T05:27:11.848Z,929.62
2023-11-12T05:28:11.831Z,929.63
2023-11-12T05:29:11.925Z,929.61
2023-11-12T05:30:11.829Z,929.67
2023-11-12T05:31:11.914Z,929.65
2023-11-12T05:32:11.812Z,929.57
2023-11-12T05:33:11.880Z,929.60
2023-11-12T05:34:12.052Z,929.63
2023-11-12T05:35:11.795Z,929.63
2023-11-12T05:36:11.829Z,929.62
2023-11-12T05:37:56.803Z,929.58
2023-11-12T05:38:56.783Z,929.60
2023-11-12T05:39:56.791Z,929.60
2023-11-12T05:40:56.736Z,929.63
2023-11-12T05:41:56.738Z,929.62
2023-11-12T05:42:56.724Z,929.57
2023-11-12T05:43:56.717Z,929.59
2023-11-12T05:44:56.712Z,929.63
2023-11-12T05:45:56.709Z,929.64
2023-11-12T05:46:56.699Z,929.59
2023-11-12T05:47:56.744Z,929.53
2023-11-12T05:48:56.687Z,929.60
2023-11-12T05:49:56.679Z,929.58
2023-11-12T05:50:56.791Z,929.59
2023-11-12T05:51:56.669Z,929.57
2023-11-12T05:52:56.662Z,929.59
2023-11-12T05:53:56.667Z,929.59
2023-11-12T05:54:56.713Z,929.56
2023-11-12T05:55:56.645Z,929.56
2023-11-12T05:56:56.637Z,929.57
2023-11-12T05:57:56.645Z,929.58
2023-11-12T05:58:56.625Z,929.58
2023-11-12T05:59:56.620Z,929.58
2023-11-12T06:00:56.618Z,929.53
2023-11-12T06:01:56.628Z,929.58
2023-11-12T06:02:56.662Z,929.60
2023-11-12T06:03:56.834Z,929.62
2023-11-12T06:04:56.589Z,929.63
2023-11-12T06:05:56.583Z,929.62
2023-11-12T06:06:56.581Z,929.63
2023-11-12T06:07:56.671Z,929.63
2023-11-12T06:08:56.565Z,929.62
2023-11-12T06:09:56.563Z,929.57
2023-11-12T06:10:56.552Z,929.60
2023-11-12T06:11:56.545Z,929.57
2023-11-12T06:12:56.537Z,929.57
2023-11-12T06:13:56.694Z,929.55
2023-11-12T06:14:56.525Z,929.59
2023-11-12T06:15:56.522Z,929.57
2023-11-12T06:16:56.541Z,929.59
2023-11-12T06:17:56.569Z,929.58
2023-11-12T06:18:56.499Z,929.61
2023-11-12T06:19:56.633Z,929.63
2023-11-12T06:20:56.500Z,929.60
2023-11-12T06:21:56.516Z,929.62
2023-11-12T06:22:56.473Z,929.64
2023-11-12T06:23:56.477Z,929.67
2023-11-12T06:24:56.459Z,929.68
2023-11-12T06:25:56.555Z,929.67
2023-11-12T06:26:56.455Z,929.67
2023-11-12T06:27:56.453Z,929.69
2023-11-12T06:28:56.441Z,929.75
2023-11-12T06:29:56.429Z,929.81
2023-11-12T06:30:56.520Z,929.79
2023-11-12T06:31:56.420Z,929.78
2023-11-12T06:32:56.546Z,929.79
2023-11-12T06:33:56.596Z,929.78
2023-11-12T06:34:56.412Z,929.83
2023-11-12T06:35:56.649Z,929.80
2023-11-12T06:36:56.385Z,929.81
2023-11-12T06:37:56.377Z,929.77
2023-11-12T06:38:56.448Z,929.80
2023-11-12T06:39:56.390Z,929.81
2023-11-12T06:40:56.356Z,929.78
2023-11-12T06:41:56.478Z,929.78
2023-11-12T06:42:56.353Z,929.79
2023-11-12T06:43:56.344Z,929.80
2023-11-12T06:44:56.333Z,929.77
2023-11-12T06:45:56.328Z,929.80
2023-11-12T06:46:56.369Z,929.80
2023-11-12T06:47:56.358Z,929.82
2023-11-12T06:48:56.324Z,929.82
2023-11-12T06:49:57.914Z,929.82
2023-11-12T06:50:56.293Z,929.81
2023-11-12T06:51:56.288Z,929.85
2023-11-12T06:52:56.280Z,929.86
2023-11-12T06:53:56.277Z,929.84
2023-11-12T06:54:56.269Z,929.80
2023-11-12T06:55:56.265Z,929.77
2023-11-12T06:56:56.355Z,929.81
2023-11-12T06:57:56.253Z,929.80
2023-11-12T06:58:56.244Z,929.79
2023-11-12T06:59:56.241Z,929.80
2023-11-12T07:00:56.374Z,929.79
2023-11-12T07:01:56.225Z,929.75
2023-11-12T07:02:56.392Z,929.74
2023-11-12T07:03:56.297Z,929.73
2023-11-12T07:04:56.204Z,929.75
2023-11-12T07:05:56.209Z,929.75
2023-11-12T07:07:05.980Z,929.81
2023-11-12T07:07:56.188Z,929.82
2023-11-12T07:08:56.184Z,929.79
2023-11-12T07:09:56.180Z,929.78
2023-11-12T07:10:56.168Z,929.79
2023-11-12T07:11:56.162Z,929.76
2023-11-12T07:12:56.154Z,929.79
2023-11-12T07:13:56.149Z,929.79
2023-11-12T07:14:56.160Z,929.76
2023-11-12T07:15:56.448Z,929.80
2023-11-12T07:16:56.231Z,929.80
2023-11-12T07:17:56.143Z,929.83
2023-11-12T07:18:56.213Z,929.87
2023-11-12T07:19:56.112Z,929.82
2023-11-12T07:20:56.108Z,929.85
2023-11-12T07:21:56.100Z,929.82
2023-11-12T07:22:56.096Z,929.85
2023-11-12T07:23:56.105Z,929.82
2023-11-12T07:24:56.088Z,929.83
2023-11-12T07:25:56.074Z,929.83
2023-11-12T07:26:56.070Z,929.82
2023-11-12T07:27:56.080Z,929.84
2023-11-12T07:28:56.305Z,929.86
2023-11-12T07:29:56.053Z,929.87
2023-11-12T07:30:56.041Z,929.87
2023-11-12T07:31:56.038Z,929.89
2023-11-12T07:32:56.140Z,929.89
2023-11-12T07:33:56.032Z,929.90
2023-11-12T07:34:56.019Z,929.86
2023-11-12T07:35:56.014Z,929.88
2023-11-12T07:36:56.001Z,929.87
2023-11-12T07:37:55.997Z,929.88
2023-11-12T07:38:55.995Z,929.91
2023-11-12T07:39:56.040Z,929.92
2023-11-12T07:40:55.979Z,929.92
2023-11-12T07:41:55.980Z,929.93
2023-11-12T07:42:55.976Z,929.95
2023-11-12T07:43:55.963Z,929.94
2023-11-12T07:45:02.957Z,929.95
2023-11-12T07:45:56.085Z,929.94
2023-11-12T07:46:56.096Z,929.95
2023-11-12T07:47:55.962Z,929.89
2023-11-12T07:48:55.935Z,929.91
2023-11-12T07:49:55.933Z,929.92
2023-11-12T07:50:55.925Z,929.94
2023-11-12T07:51:55.918Z,929.96
2023-11-12T07:52:55.912Z,929.93
2023-11-12T07:53:55.901Z,929.96
2023-11-12T07:54:55.898Z,929.95
2023-11-12T07:55:55.899Z,929.94
2023-11-12T07:56:55.894Z,929.97
2023-11-12T07:57:55.880Z,929.98
2023-11-12T07:58:55.874Z,929.99
2023-11-12T07:59:55.865Z,930.01
2023-11-12T08:00:55.857Z,930.06
2023-11-12T08:01:55.903Z,930.05
2023-11-12T08:02:55.859Z,930.07
2023-11-12T08:03:55.886Z,930.07
2023-11-12T08:04:55.833Z,930.05
2023-11-12T08:05:55.826Z,930.06
2023-11-12T08:06:55.857Z,930.05
2023-11-12T08:07:55.815Z,930.06
2023-11-12T08:08:55.810Z,930.06
2023-11-12T08:09:55.804Z,930.05
2023-11-12T08:10:55.797Z,930.03
2023-11-12T08:11:55.896Z,930.01
2023-11-12T08:12:55.785Z,930.02
2023-11-12T08:13:55.781Z,930.00
2023-11-12T08:14:55.774Z,929.98
2023-11-12T08:15:55.767Z,929.98
2023-11-12T08:16:55.768Z,930.02
2023-11-12T08:17:55.783Z,930.02
2023-11-12T08:18:55.813Z,929.97
2023-11-12T08:19:55.741Z,930.06
2023-11-12T08:20:55.803Z,930.09
2023-11-12T08:21:55.866Z,930.05
2023-11-12T08:22:55.723Z,930.09
2023-11-12T08:23:55.717Z,930.09
2023-11-12T08:24:55.712Z,930.11
2023-11-12T08:25:55.703Z,930.12
2023-11-12T08:26:55.698Z,930.13
2023-11-12T08:27:55.742Z,930.16
2023-11-12T08:28:55.687Z,930.14
2023-11-12T08:29:55.683Z,930.15
2023-11-12T08:30:55.763Z,930.18
2023-11-12T08:31:55.686Z,930.19
2023-11-12T08:32:55.695Z,930.19
2023-11-12T08:33:55.797Z,930.23
2023-11-12T08:34:55.648Z,930.25
2023-11-12T08:35:55.652Z,930.26
2023-11-12T08:36:55.714Z,930.23
2023-11-12T08:37:55.729Z,930.28
2023-11-12T08:38:55.634Z,930.28
2023-11-12T08:39:55.643Z,930.30
2023-11-12T08:40:55.625Z,930.30
2023-11-12T08:41:55.615Z,930.32
2023-11-12T08:42:55.610Z,930.29
2023-11-12T08:43:55.587Z,930.26
2023-11-12T08:44:55.679Z,930.31
2023-11-12T08:45:55.608Z,930.31
2023-11-12T08:46:55.625Z,930.34
2023-11-12T08:47:55.577Z,930.37
2023-11-12T08:48:55.605Z,930.38
2023-11-12T08:49:55.558Z,930.37
2023-11-12T08:50:55.542Z,930.42
2023-11-12T08:51:55.556Z,930.42
2023-11-12T08:52:55.529Z,930.43
2023-11-12T08:53:55.523Z,930.43
2023-11-12T08:54:55.562Z,930.43
2023-11-12T08:55:56.109Z,930.45
2023-11-12T08:56:55.505Z,930.47
2023-11-12T08:57:55.526Z,930.46
2023-11-12T08:58:55.491Z,930.53
2023-11-12T08:59:55.487Z,930.50
2023-11-12T09:00:55.561Z,930.51
2023-11-12T09:01:55.508Z,930.54
2023-11-12T09:02:55.508Z,930.55
2023-11-12T09:03:55.557Z,930.53
2023-11-12T09:04:55.464Z,930.57
2023-11-12T09:05:55.450Z,930.60
2023-11-12T09:06:55.459Z,930.63
2023-11-12T09:07:55.435Z,930.62
2023-11-12T09:08:55.431Z,930.64
2023-11-12T09:09:55.475Z,930.63
2023-11-12T09:10:55.420Z,930.62
2023-11-12T09:11:55.413Z,930.61
2023-11-12T09:12:55.437Z,930.64
2023-11-12T09:13:55.403Z,930.67
2023-11-12T09:14:55.408Z,930.67
2023-11-12T09:15:55.467Z,930.64
2023-11-12T09:16:55.414Z,930.66
2023-11-12T09:17:55.411Z,930.65
2023-11-12T09:18:55.418Z,930.67
2023-11-12T09:19:55.377Z,930.69
2023-11-12T09:20:55.374Z,930.68
2023-11-12T09:21:55.410Z,930.68
2023-11-12T09:22:55.349Z,930.70
2023-11-12T09:23:55.349Z,930.70
2023-11-12T09:25:04.720Z,930.73
2023-11-12T09:25:55.330Z,930.76
2023-11-12T09:26:55.424Z,930.75
2023-11-12T09:27:55.360Z,930.74
2023-11-12T09:28:55.312Z,930.70
2023-11-12T09:29:55.308Z,930.72
2023-11-12T09:30:59.981Z,930.71
2023-11-12T09:31:55.296Z,930.70
2023-11-12T09:32:55.340Z,930.65
2023-11-12T09:33:55.307Z,930.67
2023-11-12T09:34:55.291Z,930.63
2023-11-12T09:35:55.299Z,930.64
2023-11-12T09:36:55.427Z,930.61
2023-11-12T09:37:55.260Z,930.64
2023-11-12T09:38:55.256Z,930.67
2023-11-12T09:39:55.360Z,930.65
2023-11-12T09:40:55.248Z,930.68
2023-11-12T09:41:55.244Z,930.69
2023-11-12T09:42:55.252Z,930.64
2023-11-12T09:43:55.244Z,930.67
2023-11-12T09:44:55.229Z,930.69
2023-11-12T09:45:55.258Z,930.70
2023-11-12T09:46:55.334Z,930.70
2023-11-12T09:47:55.251Z,930.70
2023-11-12T09:48:55.269Z,930.70
2023-11-12T09:49:55.195Z,930.73
2023-11-12T09:50:55.187Z,930.73
2023-11-12T09:51:55.200Z,930.73
2023-11-12T09:52:55.178Z,930.72
2023-11-12T09:53:55.172Z,930.72
2023-11-12T09:54:55.202Z,930.71
2023-11-12T09:55:55.165Z,930.67
2023-11-12T09:57:06.276Z,930.68
2023-11-12T09:57:55.165Z,930.63
2023-11-12T09:58:55.143Z,930.62
2023-11-12T09:59:55.137Z,930.65
2023-11-12T10:00:55.163Z,930.61
2023-11-12T10:01:55.184Z,930.61
2023-11-12T10:02:55.197Z,930.59
2023-11-12T10:03:55.246Z,930.59
2023-11-12T10:04:55.129Z,930.57
2023-11-12T10:05:55.107Z,930.52
2023-11-12T10:06:55.262Z,930.54
2023-11-12T10:07:55.096Z,930.57
2023-11-12T10:08:55.099Z,930.56
2023-11-12T10:09:55.103Z,930.55
2023-11-12T10:10:55.083Z,930.55
2023-11-12T10:11:55.077Z,930.57
2023-11-12T10:12:55.101Z,930.58
2023-11-12T10:13:55.077Z,930.59
2023-11-12T10:14:55.060Z,930.60
2023-11-12T10:15:55.158Z,930.60
2023-11-12T10:16:55.205Z,930.60
2023-11-12T10:17:57.663Z,930.58
2023-11-12T10:18:55.219Z,930.59
2023-11-12T10:19:55.032Z,930.64
2023-11-12T10:20:55.027Z,930.61
2023-11-12T10:21:55.143Z,930.66
2023-11-12T10:22:55.022Z,930.67
2023-11-12T10:23:55.014Z,930.68
2023-11-12T10:24:55.070Z,930.71
2023-11-12T10:25:55.009Z,930.71
2023-11-12T10:26:55.172Z,930.69
2023-11-12T10:27:55.051Z,930.72
2023-11-12T10:28:54.990Z,930.73
2023-11-12T10:29:54.980Z,930.69
2023-11-12T10:30:55.063Z,930.69
2023-11-12T10:31:54.989Z,930.69
2023-11-12T10:32:54.994Z,930.66
2023-11-12T10:33:55.012Z,930.69
2023-11-12T10:34:54.957Z,930.70
2023-11-12T10:35:54.954Z,930.72
2023-11-12T10:36:55.081Z,930.70
2023-11-12T10:37:54.939Z,930.72
2023-11-12T10:38:54.937Z,930.70
2023-11-12T10:39:54.965Z,930.71
2023-11-12T10:40:54.928Z,930.71
2023-11-12T10:41:54.924Z,930.71
2023-11-12T10:42:54.979Z,930.70
2023-11-12T10:43:54.909Z,930.69
2023-11-12T10:44:54.912Z,930.66
2023-11-12T10:45:54.944Z,930.67
2023-11-12T10:46:54.929Z,930.64
2023-11-12T10:47:54.922Z,930.66
2023-11-12T10:48:54.945Z,930.71
2023-11-12T10:49:54.886Z,930.69
2023-11-12T10:50:54.884Z,930.68
2023-11-12T10:51:54.941Z,930.64
2023-11-12T10:52:54.866Z,930.67
2023-11-12T10:53:54.873Z,930.69
2023-11-12T10:54:54.896Z,930.68
2023-11-12T10:55:54.856Z,930.69
2023-11-12T10:56:54.853Z,930.71
2023-11-12T10:57:54.913Z,930.70
2023-11-12T10:58:54.848Z,930.74
2023-11-12T10:59:54.850Z,930.73
2023-11-12T11:00:54.891Z,930.79
2023-11-12T11:01:54.971Z,930.75
2023-11-12T11:02:54.938Z,930.77
2023-11-12T11:03:54.895Z,930.76
2023-11-12T11:04:54.815Z,930.76
2023-11-12T11:05:54.821Z,930.76
2023-11-12T11:06:54.853Z,930.77
2023-11-12T11:07:54.804Z,930.78
2023-11-12T11:08:54.797Z,930.80
2023-11-12T11:09:54.830Z,930.77
2023-11-12T11:10:54.794Z,930.78
2023-11-12T11:11:54.895Z,930.80
2023-11-12T11:12:54.810Z,930.81
2023-11-12T11:13:54.781Z,930.81
2023-11-12T11:14:54.774Z,930.80
2023-11-12T11:15:54.834Z,930.79
2023-11-12T11:16:54.838Z,930.81
2023-11-12T11:17:54.784Z,930.76
2023-11-12T11:18:54.847Z,930.78
2023-11-12T11:19:54.757Z,930.74
2023-11-12T11:20:54.749Z,930.77
2023-11-12T11:21:54.872Z,930.74
2023-11-12T11:22:54.748Z,930.72
2023-11-12T11:23:54.887Z,930.70
2023-11-12T11:24:54.760Z,930.75
2023-11-12T11:25:54.736Z,930.75
2023-11-12T11:26:55.052Z,930.71
2023-11-12T11:27:54.843Z,930.73
2023-11-12T11:28:54.716Z,930.76
2023-11-12T11:29:54.713Z,930.76
2023-11-12T11:30:54.722Z,930.74
2023-11-12T11:31:54.707Z,930.75
2023-11-12T11:32:54.765Z,930.73
2023-11-12T11:33:54.842Z,930.77
2023-11-12T11:34:54.694Z,930.76
2023-11-12T11:35:54.691Z,930.75
2023-11-12T11:36:54.741Z,930.75
2023-11-12T11:37:54.680Z,930.78
2023-11-12T11:38:56.487Z,930.73
2023-11-12T11:39:54.707Z,930.77
2023-11-12T11:40:54.671Z,930.73
2023-11-12T11:41:54.743Z,930.71
2023-11-12T11:42:54.714Z,930.67
2023-11-12T11:43:54.657Z,930.70
2023-11-12T11:44:57.177Z,930.69
2023-11-12T11:45:54.735Z,930.65
2023-11-12T11:46:54.654Z,930.65
2023-11-12T11:47:54.657Z,930.67
2023-11-12T11:48:54.669Z,930.65
2023-11-12T11:49:54.636Z,930.65
2023-11-12T11:50:56.542Z,930.72
2023-11-12T11:51:54.714Z,930.67
2023-11-12T11:52:54.631Z,930.65
2023-11-12T11:53:54.622Z,930.67
2023-11-12T11:54:54.662Z,930.62
2023-11-12T11:55:54.767Z,930.68
2023-11-12T11:56:54.614Z,930.64
2023-11-12T11:57:54.673Z,930.67
2023-11-12T11:58:54.621Z,930.64
2023-11-12T11:59:54.604Z,930.71
2023-11-12T12:00:54.645Z,930.63
2023-11-12T12:01:54.654Z,930.62
2023-11-12T12:02:54.632Z,930.65
2023-11-12T12:03:54.638Z,930.63
2023-11-12T12:04:54.658Z,930.61
2023-11-12T12:05:54.589Z,930.65
2023-11-12T12:06:54.614Z,930.57
2023-11-12T12:07:54.585Z,930.67
2023-11-12T12:08:54.582Z,930.61
2023-11-12T12:09:57.591Z,930.62
2023-11-12T12:10:54.573Z,930.56
2023-11-12T12:11:54.675Z,930.60
2023-11-12T12:12:54.620Z,930.61
2023-11-12T12:13:54.569Z,930.60
2023-11-12T12:14:54.567Z,930.60
2023-11-12T12:15:54.605Z,930.62
2023-11-12T12:16:54.653Z,930.58
2023-11-12T12:17:54.577Z,930.57
2023-11-12T12:18:54.628Z,930.59
2023-11-12T12:19:54.558Z,930.60
2023-11-12T12:20:54.559Z,930.59
2023-11-12T12:21:54.610Z,930.61
2023-11-12T12:22:54.564Z,930.59
2023-11-12T12:23:54.557Z,930.53
2023-11-12T12:24:54.615Z,930.53
2023-11-12T12:25:54.552Z,930.53
2023-11-12T12:26:54.657Z,930.54
2023-11-12T12:27:54.671Z,930.51
2023-11-12T12:28:54.570Z,930.48